Time;durP1;ratioP1;P1;durP2;ratioP2;P2;SDS_P1;SDS_P2;PMS_P1;PMS_P2;Temp;Humidity;BMP_temperature;BMP_pressure;BME280_temperature;BME280_humidity;BME280_pressure;Samples;Min_cycle;Max_cycle;Signal;HPM_P1;HPM_P2
2022/09/11 00:00:31;;;;;;;20.10;14.43;;;12.70;99.90;;;;;;5047572;28;20069;-78
2022/09/11 00:02:57;;;;;;;19.42;14.82;;;12.70;99.90;;;;;;5049760;28;20128;-79
2022/09/11 00:05:24;;;;;;;22.70;15.00;;;12.60;99.90;;;;;;5049703;28;20175;-79
2022/09/11 00:07:50;;;;;;;28.17;16.63;;;12.70;99.90;;;;;;5047953;28;20427;-79
2022/09/11 00:10:16;;;;;;;19.70;15.65;;;12.60;99.90;;;;;;5048829;28;20051;-79
2022/09/11 00:12:43;;;;;;;21.40;15.50;;;12.60;99.90;;;;;;5047210;28;20041;-79
2022/09/11 00:15:10;;;;;;;19.90;15.80;;;12.70;99.90;;;;;;5048791;28;20041;-79
2022/09/11 00:17:36;;;;;;;24.85;17.38;;;12.70;99.90;;;;;;5047715;28;20049;-78
2022/09/11 00:20:03;;;;;;;23.58;13.02;;;12.70;99.90;;;;;;5049235;28;20048;-79
2022/09/11 00:22:29;;;;;;;15.52;11.85;;;12.60;99.90;;;;;;5047393;28;20091;-78
2022/09/11 00:24:54;;;;;;;13.45;11.38;;;12.60;99.90;;;;;;5049002;28;20057;-79
2022/09/11 00:27:20;;;;;;;16.25;12.32;;;12.60;99.90;;;;;;5048886;28;20102;-79
2022/09/11 00:29:46;;;;;;;17.50;13.13;;;12.60;99.90;;;;;;5048718;28;20029;-78
2022/09/11 00:32:11;;;;;;;20.40;14.57;;;12.60;99.90;;;;;;5047415;28;20045;-77
2022/09/11 00:34:38;;;;;;;30.27;10.63;;;12.50;99.90;;;;;;5048001;28;20126;-79
2022/09/11 00:37:04;;;;;;;15.07;11.55;;;12.40;99.90;;;;;;5048984;28;20110;-78
2022/09/11 00:39:30;;;;;;;23.08;15.77;;;12.40;99.90;;;;;;5049140;28;20110;-79
2022/09/11 00:41:57;;;;;;;20.60;16.00;;;12.40;99.90;;;;;;5049502;28;20057;-79
2022/09/11 00:44:27;;;;;;;20.10;15.98;;;12.60;99.90;;;;;;5046837;28;20793;-79
2022/09/11 00:47:03;;;;;;;21.42;15.45;;;12.40;99.90;;;;;;5048790;28;20507;-79
2022/09/11 00:49:31;;;;;;;29.92;17.30;;;12.60;99.90;;;;;;5049000;28;20053;-78
2022/09/11 00:52:02;;;;;;;23.25;17.45;;;12.50;99.90;;;;;;5047822;28;20196;-79
2022/09/11 00:54:32;;;;;;;24.65;16.95;;;12.50;99.90;;;;;;5046288;28;20045;-78
2022/09/11 00:57:01;;;;;;;26.15;18.75;;;12.60;99.90;;;;;;5047713;28;20060;-79
2022/09/11 00:59:29;;;;;;;27.20;18.55;;;12.60;99.90;;;;;;5047940;28;20502;-78
2022/09/11 01:01:55;;;;;;;26.95;19.40;;;12.70;99.90;;;;;;5048098;28;20189;-78
2022/09/11 01:04:22;;;;;;;26.65;20.17;;;12.70;99.90;;;;;;5045727;28;20045;-78
2022/09/11 01:06:51;;;;;;;25.42;18.58;;;12.70;99.90;;;;;;5048924;28;20080;-79
2022/09/11 01:09:17;;;;;;;26.83;19.73;;;12.80;99.90;;;;;;5048776;28;20088;-78
2022/09/11 01:11:57;;;;;;;23.77;17.75;;;12.80;99.90;;;;;;5047127;28;20045;-79
2022/09/11 01:14:56;;;;;;;17.77;14.48;;;12.90;99.90;;;;;;5047196;28;20263;-77
2022/09/11 01:17:28;;;;;;;21.50;14.75;;;12.90;99.90;;;;;;5023165;28;20050;-79
2022/09/11 01:20:22;;;;;;;21.33;15.70;;;12.90;99.90;;;;;;5028778;28;20481;-79
2022/09/11 01:23:16;;;;;;;24.58;17.38;;;13.00;99.90;;;;;;5032593;28;20053;-77
2022/09/11 01:25:44;;;;;;;21.67;16.30;;;13.00;99.90;;;;;;5010838;28;20675;-79
2022/09/11 01:28:15;;;;;;;20.88;16.52;;;13.00;99.90;;;;;;5012437;28;20132;-76
2022/09/11 01:30:46;;;;;;;21.15;16.20;;;13.00;99.90;;;;;;5010707;28;20048;-77
2022/09/11 01:33:30;;;;;;;21.50;17.17;;;13.00;99.90;;;;;;5012443;28;20125;-78
2022/09/11 01:36:04;;;;;;;21.77;16.42;;;12.90;99.90;;;;;;5011077;28;20096;-77
2022/09/11 01:38:54;;;;;;;16.98;13.18;;;13.00;99.90;;;;;;5012298;28;20041;-77
2022/09/11 01:41:24;;;;;;;18.42;11.32;;;12.90;99.90;;;;;;5014073;28;20046;-76
2022/09/11 01:44:02;;;;;;;13.48;11.07;;;12.90;99.90;;;;;;5012073;28;20056;-78
2022/09/11 01:46:33;;;;;;;14.95;11.52;;;12.80;99.90;;;;;;5010292;28;20091;-78
2022/09/11 01:49:05;;;;;;;13.70;10.35;;;12.90;99.90;;;;;;5027121;28;20454;-77
2022/09/11 01:51:34;;;;;;;15.55;11.82;;;12.70;99.90;;;;;;5011788;28;20519;-78
2022/09/11 01:54:02;;;;;;;14.77;11.70;;;12.80;99.90;;;;;;5030754;28;20060;-77
2022/09/11 01:56:39;;;;;;;14.25;11.80;;;12.80;99.90;;;;;;5031718;28;20052;-78
2022/09/11 01:59:09;;;;;;;15.98;10.88;;;12.70;99.90;;;;;;5031576;28;20409;-79
2022/09/11 02:01:38;;;;;;;14.40;11.13;;;12.70;99.90;;;;;;5031240;28;20057;-79
2022/09/11 02:04:09;;;;;;;11.38;8.10;;;12.60;99.90;;;;;;5030662;28;20775;-79
2022/09/11 02:07:04;;;;;;;9.98;7.72;;;12.60;99.90;;;;;;5030635;28;20103;-78
2022/09/11 02:09:46;;;;;;;9.82;8.43;;;12.50;99.90;;;;;;5031648;28;20335;-75
2022/09/11 02:12:15;;;;;;;14.05;9.48;;;12.40;99.90;;;;;;5048101;28;20045;-79
2022/09/11 02:14:43;;;;;;;14.30;11.40;;;12.40;99.90;;;;;;5050502;28;20037;-78
2022/09/11 02:17:27;;;;;;;80.13;16.90;;;12.40;99.90;;;;;;5035373;28;20057;-78
2022/09/11 02:19:55;;;;;;;136.48;16.90;;;12.40;99.90;;;;;;5029953;28;20132;-78
2022/09/11 02:22:21;;;;;;;17.70;12.65;;;12.40;99.90;;;;;;5030433;28;20045;-78
2022/09/11 02:24:47;;;;;;;16.73;11.70;;;12.40;99.90;;;;;;5030663;28;20052;-78
2022/09/11 02:27:17;;;;;;;13.88;10.52;;;12.30;99.90;;;;;;5030940;28;20053;-79
2022/09/11 02:29:43;;;;;;;31.50;9.30;;;12.30;99.90;;;;;;5046619;28;20121;-78
2022/09/11 02:32:11;;;;;;;11.80;8.25;;;12.30;99.90;;;;;;5042577;28;20477;-79
2022/09/11 02:34:41;;;;;;;8.73;6.57;;;12.30;99.90;;;;;;5031889;28;20045;-76
2022/09/11 02:37:20;;;;;;;11.05;8.85;;;12.20;99.90;;;;;;5029138;28;20061;-78
2022/09/11 02:40:09;;;;;;;16.35;10.70;;;12.20;99.90;;;;;;5034615;28;20042;-79
2022/09/11 02:43:05;;;;;;;16.55;11.27;;;12.20;99.90;;;;;;5029136;28;20132;-78
2022/09/11 02:45:52;;;;;;;10.43;7.72;;;12.20;99.90;;;;;;5029311;28;20053;-78
2022/09/11 02:48:40;;;;;;;8.80;6.72;;;12.20;99.90;;;;;;5031307;28;20053;-79
2022/09/11 02:51:28;;;;;;;11.68;9.50;;;12.10;99.90;;;;;;5030508;28;20505;-78
2022/09/11 02:54:09;;;;;;;10.77;8.02;;;12.10;99.90;;;;;;5030442;28;20474;-78
2022/09/11 02:56:51;;;;;;;8.77;6.72;;;12.10;99.90;;;;;;5030154;28;20392;-78
2022/09/11 02:59:27;;;;;;;8.20;5.65;;;12.20;99.90;;;;;;5029915;28;20396;-78
2022/09/11 03:01:59;;;;;;;5.15;4.30;;;12.00;99.90;;;;;;5029700;28;20053;-77
2022/09/11 03:04:24;;;;;;;7.07;5.15;;;12.00;99.90;;;;;;5033849;28;20052;-77
2022/09/11 03:06:51;;;;;;;12.63;5.63;;;11.90;99.90;;;;;;5030013;28;20439;-78
2022/09/11 03:09:18;;;;;;;6.75;4.80;;;12.00;99.90;;;;;;5036483;28;20049;-75
2022/09/11 03:11:44;;;;;;;8.63;7.35;;;11.80;99.90;;;;;;5035340;28;20094;-76
2022/09/11 03:14:10;;;;;;;12.18;6.70;;;11.80;99.90;;;;;;5028055;28;20451;-76
2022/09/11 03:16:36;;;;;;;149.73;11.27;;;11.80;99.90;;;;;;5029935;28;20072;-77
2022/09/11 03:19:06;;;;;;;26.70;6.85;;;11.70;99.90;;;;;;5028919;28;20098;-77
2022/09/11 03:21:32;;;;;;;11.32;5.65;;;11.80;99.90;;;;;;5028626;28;20119;-77
2022/09/11 03:23:57;;;;;;;28.08;8.30;;;11.70;99.90;;;;;;5041720;28;20053;-76
2022/09/11 03:26:24;;;;;;;8.43;6.30;;;11.60;99.90;;;;;;5028344;28;20518;-77
2022/09/11 03:28:51;;;;;;;12.27;7.55;;;11.60;99.90;;;;;;5029830;28;20049;-77
2022/09/11 03:31:17;;;;;;;13.35;10.45;;;11.80;99.90;;;;;;5028302;28;20061;-78
2022/09/11 03:33:42;;;;;;;34.55;13.15;;;11.60;99.90;;;;;;5029303;28;20037;-77
2022/09/11 03:36:09;;;;;;;34.65;14.52;;;11.60;99.90;;;;;;5029625;28;20416;-77
2022/09/11 03:38:34;;;;;;;38.72;18.77;;;11.60;99.90;;;;;;5028247;28;20050;-77
2022/09/11 03:41:02;;;;;;;41.25;22.80;;;11.60;99.90;;;;;;5028166;28;20484;-77
2022/09/11 03:43:28;;;;;;;46.65;25.67;;;11.60;99.90;;;;;;5028789;28;20049;-76
2022/09/11 03:45:53;;;;;;;38.55;18.40;;;11.60;99.90;;;;;;5029543;28;20138;-77
2022/09/11 03:48:19;;;;;;;34.28;9.10;;;11.60;99.90;;;;;;5029129;28;20049;-77
2022/09/11 03:50:46;;;;;;;11.98;7.43;;;11.50;99.90;;;;;;5043619;28;20460;-77
2022/09/11 03:53:12;;;;;;;9.13;5.80;;;11.50;99.90;;;;;;5049527;28;20045;-77
2022/09/11 03:55:38;;;;;;;15.23;10.10;;;11.40;99.90;;;;;;5047831;28;20511;-76
2022/09/11 03:58:06;;;;;;;15.38;10.48;;;11.40;99.90;;;;;;5048850;28;20049;-76
2022/09/11 04:00:32;;;;;;;11.23;8.57;;;11.40;99.90;;;;;;5048878;28;20047;-77
2022/09/11 04:02:59;;;;;;;10.68;8.52;;;11.40;99.90;;;;;;5031613;28;20139;-76
2022/09/11 04:05:25;;;;;;;12.20;8.80;;;11.40;99.90;;;;;;5029017;28;20046;-76
2022/09/11 04:07:52;;;;;;;12.55;9.60;;;11.40;99.90;;;;;;5029130;28;20069;-76
2022/09/11 04:10:18;;;;;;;11.90;9.23;;;11.40;99.90;;;;;;5032993;28;20151;-76
2022/09/11 04:12:45;;;;;;;10.32;7.95;;;11.50;99.90;;;;;;5028948;28;20045;-76
2022/09/11 04:15:11;;;;;;;10.23;7.25;;;11.40;99.90;;;;;;5027590;28;20508;-77
2022/09/11 04:17:37;;;;;;;11.90;9.05;;;11.40;99.90;;;;;;5028989;28;20041;-77
2022/09/11 04:20:03;;;;;;;8.45;6.97;;;11.40;99.90;;;;;;5027356;28;20060;-76
2022/09/11 04:22:29;;;;;;;10.60;7.60;;;11.40;99.90;;;;;;5028265;28;20057;-76
2022/09/11 04:24:56;;;;;;;11.82;7.78;;;11.60;99.90;;;;;;5027547;28;20477;-76
2022/09/11 04:27:22;;;;;;;10.90;7.50;;;11.40;99.90;;;;;;5028682;28;20045;-76
2022/09/11 04:29:48;;;;;;;10.55;6.53;;;11.30;99.90;;;;;;5029045;28;20559;-76
2022/09/11 04:32:15;;;;;;;15.25;8.52;;;11.30;99.90;;;;;;5027677;28;20091;-76
2022/09/11 04:34:40;;;;;;;29.58;12.80;;;11.30;99.90;;;;;;5029391;28;20053;-76
2022/09/11 04:37:06;;;;;;;15.55;9.07;;;11.20;99.90;;;;;;5028172;28;20041;-76
2022/09/11 04:39:33;;;;;;;11.75;7.47;;;11.20;99.90;;;;;;5026687;28;20080;-75
2022/09/11 04:41:59;;;;;;;6.68;4.82;;;11.20;99.90;;;;;;5026693;28;20049;-76
2022/09/11 04:44:25;;;;;;;7.85;4.88;;;11.20;99.90;;;;;;5032927;28;20045;-76
2022/09/11 04:46:50;;;;;;;7.32;4.32;;;11.20;99.90;;;;;;5036685;28;20463;-76
2022/09/11 04:49:16;;;;;;;10.80;4.90;;;11.20;99.90;;;;;;5028444;28;20108;-77
2022/09/11 04:51:42;;;;;;;5.70;4.53;;;11.10;99.90;;;;;;5028257;28;20455;-76
2022/09/11 04:54:12;;;;;;;6.90;4.82;;;11.10;99.90;;;;;;5028168;28;20042;-76
2022/09/11 04:56:38;;;;;;;10.07;5.78;;;11.10;99.90;;;;;;5031587;28;20116;-76
2022/09/11 04:59:12;;;;;;;13.00;8.63;;;11.30;99.90;;;;;;5030795;28;20441;-76
2022/09/11 05:01:38;;;;;;;9.55;7.30;;;11.10;99.90;;;;;;5032185;28;20045;-76
2022/09/11 05:04:04;;;;;;;9.43;7.45;;;11.10;99.90;;;;;;5032085;28;20424;-76
2022/09/11 05:06:31;;;;;;;11.27;7.30;;;11.10;99.90;;;;;;5040453;28;20092;-77
2022/09/11 05:09:02;;;;;;;11.90;7.75;;;11.10;99.90;;;;;;5032161;28;20095;-75
2022/09/11 05:11:29;;;;;;;7.30;5.45;;;11.10;99.90;;;;;;5032859;28;20046;-76
2022/09/11 05:13:57;;;;;;;6.80;4.53;;;11.10;99.90;;;;;;5030363;28;20053;-74
2022/09/11 05:16:24;;;;;;;5.68;4.10;;;11.10;99.90;;;;;;5036795;28;20084;-77
2022/09/11 05:18:51;;;;;;;5.47;4.68;;;11.10;99.90;;;;;;5030402;28;20053;-76
2022/09/11 05:21:17;;;;;;;7.45;5.95;;;11.10;99.90;;;;;;5031022;28;20136;-76
2022/09/11 05:23:47;;;;;;;12.48;6.53;;;11.00;99.90;;;;;;5030344;28;20057;-76
2022/09/11 05:26:17;;;;;;;7.82;6.30;;;11.00;99.90;;;;;;5034990;28;20132;-77
2022/09/11 05:28:43;;;;;;;10.07;5.32;;;11.10;99.90;;;;;;5038025;28;20128;-76
2022/09/11 05:31:16;;;;;;;7.88;5.60;;;11.10;99.90;;;;;;5031426;28;20129;-75
2022/09/11 05:33:44;;;;;;;6.75;5.70;;;11.00;99.90;;;;;;5031539;28;20052;-76
2022/09/11 05:36:11;;;;;;;9.43;7.60;;;11.10;99.90;;;;;;5030829;28;20103;-76
2022/09/11 05:38:40;;;;;;;7.57;6.45;;;11.20;99.90;;;;;;5037250;28;20043;-75
2022/09/11 05:41:08;;;;;;;5.97;5.25;;;11.20;99.90;;;;;;5026897;28;20042;-76
2022/09/11 05:43:34;;;;;;;6.45;5.15;;;11.20;99.90;;;;;;5022182;28;20045;-76
2022/09/11 05:46:00;;;;;;;6.07;5.47;;;11.20;99.90;;;;;;5030210;28;20041;-77
2022/09/11 05:48:31;;;;;;;5.68;5.07;;;11.20;99.90;;;;;;5029291;28;20056;-76
2022/09/11 05:50:59;;;;;;;5.88;5.03;;;11.20;99.90;;;;;;5035853;28;20048;-76
2022/09/11 05:53:27;;;;;;;6.47;5.78;;;11.20;99.90;;;;;;5030052;28;20038;-76
2022/09/11 05:55:53;;;;;;;5.63;4.80;;;11.30;99.90;;;;;;5030901;28;20576;-76
2022/09/11 05:58:20;;;;;;;7.03;6.32;;;11.30;99.90;;;;;;5030522;28;20160;-77
2022/09/11 06:00:46;;;;;;;10.48;6.50;;;11.20;99.90;;;;;;5029607;28;20564;-77
2022/09/11 06:03:17;;;;;;;9.15;6.53;;;11.30;99.90;;;;;;5030800;28;20124;-75
2022/09/11 06:05:43;;;;;;;11.20;8.80;;;11.30;99.90;;;;;;5030695;28;20049;-76
2022/09/11 06:08:10;;;;;;;14.75;11.63;;;11.40;99.90;;;;;;5029413;28;20117;-75
2022/09/11 06:10:45;;;;;;;14.43;11.43;;;11.40;99.90;;;;;;5034304;28;20413;-77
2022/09/11 06:13:11;;;;;;;12.13;10.38;;;11.40;99.90;;;;;;5030962;28;20049;-76
2022/09/11 06:15:43;;;;;;;11.95;10.32;;;11.50;99.90;;;;;;5029122;28;20046;-76
2022/09/11 06:18:09;;;;;;;14.48;11.10;;;11.60;99.90;;;;;;5029300;28;20129;-76
2022/09/11 06:20:34;;;;;;;12.68;10.43;;;11.70;99.90;;;;;;5029962;28;20041;-76
2022/09/11 06:23:00;;;;;;;14.02;11.20;;;11.70;99.90;;;;;;5028977;28;20095;-76
2022/09/11 06:25:26;;;;;;;12.07;10.20;;;11.80;99.90;;;;;;5030145;28;20461;-76
2022/09/11 06:27:51;;;;;;;9.18;7.93;;;11.90;99.90;;;;;;5030802;28;20045;-76
2022/09/11 06:30:17;;;;;;;12.05;10.82;;;12.10;99.90;;;;;;5038407;28;20041;-76
2022/09/11 06:32:42;;;;;;;12.30;10.73;;;12.10;99.90;;;;;;5031292;28;20045;-76
2022/09/11 06:35:09;;;;;;;15.88;10.98;;;12.20;99.90;;;;;;5029859;28;20038;-77
2022/09/11 06:37:34;;;;;;;12.70;11.30;;;12.20;99.90;;;;;;5030136;28;20084;-76
2022/09/11 06:40:03;;;;;;;23.48;17.63;;;12.30;99.90;;;;;;5030068;28;20045;-76
2022/09/11 06:42:29;;;;;;;27.25;18.05;;;12.50;99.90;;;;;;5030290;28;20075;-76
2022/09/11 06:44:55;;;;;;;29.77;20.02;;;12.70;99.90;;;;;;5027806;28;20132;-76
2022/09/11 06:47:21;;;;;;;20.45;15.73;;;13.00;99.90;;;;;;5030010;28;20137;-76
2022/09/11 06:49:46;;;;;;;26.42;19.42;;;12.90;99.90;;;;;;5029901;28;20045;-76
2022/09/11 06:52:12;;;;;;;26.05;19.17;;;13.10;99.90;;;;;;5037062;28;20037;-76
2022/09/11 06:54:37;;;;;;;23.35;17.95;;;13.30;99.90;;;;;;5029702;28;20048;-76
2022/09/11 06:57:03;;;;;;;21.70;15.27;;;13.70;99.90;;;;;;5028487;28;20499;-76
2022/09/11 06:59:30;;;;;;;22.52;16.40;;;13.40;99.90;;;;;;5028492;28;20473;-76
2022/09/11 07:01:55;;;;;;;20.83;14.55;;;13.50;99.90;;;;;;5032524;28;20519;-76
2022/09/11 07:04:22;;;;;;;15.63;12.80;;;13.50;99.90;;;;;;5029869;28;20034;-76
2022/09/11 07:06:49;;;;;;;23.00;18.42;;;13.70;99.90;;;;;;5029675;28;20117;-76
2022/09/11 07:09:14;;;;;;;27.85;20.25;;;13.80;99.90;;;;;;5029106;28;20353;-74
2022/09/11 07:11:43;;;;;;;25.00;17.63;;;13.90;99.90;;;;;;5029043;28;20049;-76
2022/09/11 07:14:09;;;;;;;19.90;16.42;;;14.10;99.90;;;;;;5027827;28;20053;-76
2022/09/11 07:16:36;;;;;;;20.10;16.33;;;14.10;99.90;;;;;;5036124;28;20820;-77
2022/09/11 07:19:03;;;;;;;23.38;18.30;;;14.30;99.90;;;;;;5027298;28;20150;-77
2022/09/11 07:21:29;;;;;;;19.90;15.95;;;14.40;99.90;;;;;;5027802;28;20053;-76
2022/09/11 07:23:57;;;;;;;21.15;17.33;;;14.50;99.90;;;;;;5028247;28;20061;-76
2022/09/11 07:26:25;;;;;;;16.70;13.25;;;14.60;99.90;;;;;;5027894;28;20441;-77
2022/09/11 07:28:53;;;;;;;21.65;16.92;;;14.70;99.90;;;;;;5032629;28;20084;-77
2022/09/11 07:31:21;;;;;;;26.60;19.33;;;14.80;99.90;;;;;;5030054;28;20144;-75
2022/09/11 07:33:48;;;;;;;18.77;15.85;;;15.00;99.90;;;;;;5031588;28;20065;-76
2022/09/11 07:36:17;;;;;;;21.00;17.27;;;15.10;99.90;;;;;;5040623;28;20042;-76
2022/09/11 07:38:44;;;;;;;19.30;16.23;;;15.20;99.90;;;;;;5029975;28;20107;-76
2022/09/11 07:41:10;;;;;;;19.17;15.93;;;15.30;99.90;;;;;;5029363;28;20055;-76
2022/09/11 07:43:37;;;;;;;23.25;15.90;;;15.40;99.90;;;;;;5037513;28;20045;-76
2022/09/11 07:46:04;;;;;;;19.65;14.85;;;15.50;99.90;;;;;;5029297;28;20033;-77
2022/09/11 07:48:30;;;;;;;19.00;14.65;;;15.70;99.90;;;;;;5029307;28;20045;-77
2022/09/11 07:51:04;;;;;;;16.88;13.98;;;15.80;99.90;;;;;;5028710;28;20421;-77
2022/09/11 07:53:34;;;;;;;16.05;13.45;;;15.90;99.90;;;;;;5043998;28;20071;-77
2022/09/11 07:56:05;;;;;;;15.52;13.43;;;16.10;99.90;;;;;;5031855;28;20089;-77
2022/09/11 07:58:36;;;;;;;18.70;13.45;;;16.20;99.90;;;;;;5028938;28;20045;-76
2022/09/11 08:01:04;;;;;;;14.23;11.70;;;16.30;99.90;;;;;;5037233;28;20053;-77
2022/09/11 08:03:30;;;;;;;14.40;12.85;;;16.50;99.90;;;;;;5027442;28;20048;-78
2022/09/11 08:06:01;;;;;;;15.25;12.38;;;16.60;99.90;;;;;;5032293;28;20041;-77
2022/09/11 08:08:28;;;;;;;13.93;10.93;;;16.90;99.90;;;;;;5029583;28;20054;-78
2022/09/11 08:11:04;;;;;;;15.25;12.02;;;17.00;99.90;;;;;;5027951;28;20088;-77
2022/09/11 08:13:30;;;;;;;13.70;11.55;;;17.00;99.90;;;;;;5037941;28;20498;-79
2022/09/11 08:15:55;;;;;;;13.20;10.32;;;17.30;99.90;;;;;;5029555;28;20132;-80
2022/09/11 08:18:22;;;;;;;11.18;7.82;;;17.50;99.90;;;;;;5032848;28;20049;-80
2022/09/11 08:20:48;;;;;;;11.18;8.30;;;17.70;99.90;;;;;;5036048;28;20124;-78
2022/09/11 08:23:14;;;;;;;11.68;8.63;;;18.00;99.90;;;;;;5034801;28;20124;-77
2022/09/11 08:25:40;;;;;;;11.98;8.98;;;18.20;99.90;;;;;;5035811;28;20126;-81
2022/09/11 08:28:06;;;;;;;9.48;6.57;;;18.50;99.90;;;;;;5031107;28;20041;-77
2022/09/11 08:30:32;;;;;;;8.05;5.75;;;18.70;99.90;;;;;;5031496;28;20060;-82
2022/09/11 08:32:58;;;;;;;11.15;6.30;;;18.70;99.90;;;;;;5035830;28;20087;-81
2022/09/11 08:35:25;;;;;;;8.98;5.32;;;18.90;99.90;;;;;;5038179;28;20049;-86
2022/09/11 08:37:52;;;;;;;9.45;5.60;;;19.30;99.90;;;;;;5038406;28;20098;-83
2022/09/11 08:40:18;;;;;;;9.93;5.15;;;19.40;99.90;;;;;;5052386;28;20563;-84
2022/09/11 08:42:45;;;;;;;10.20;5.07;;;19.50;99.90;;;;;;5052596;28;20156;-83
2022/09/11 08:45:17;;;;;;;8.13;4.72;;;19.50;99.90;;;;;;5051433;28;20075;-78
2022/09/11 08:47:51;;;;;;;9.05;4.50;;;19.70;99.90;;;;;;5031574;28;20344;-82
2022/09/11 08:50:26;;;;;;;7.03;4.10;;;19.60;99.90;;;;;;5032932;28;20443;-80
2022/09/11 08:52:54;;;;;;;;;;;19.70;99.90;;;;;;5046215;28;20037;-82
2022/09/11 08:55:38;;;;;;;7.63;4.18;;;19.70;99.90;;;;;;5051117;28;20165;-82
2022/09/11 08:58:17;;;;;;;9.60;4.33;;;19.80;99.90;;;;;;5047624;28;20053;-81
2022/09/11 09:00:54;;;;;;;8.55;4.10;;;19.80;99.90;;;;;;5033484;28;20537;-81
2022/09/11 09:04:09;;;;;;;7.70;4.28;;;19.90;99.90;;;;;;5045508;28;20064;-81
2022/09/11 09:06:52;;;;;;;7.63;3.60;;;19.80;99.90;;;;;;4971740;28;20073;-82
2022/09/11 09:09:46;;;;;;;9.40;4.15;;;19.80;99.90;;;;;;4974861;28;20145;-83
2022/09/11 09:12:37;;;;;;;10.05;4.50;;;19.80;99.90;;;;;;4966592;28;20464;-80
2022/09/11 09:15:33;;;;;;;9.40;4.85;;;19.80;99.90;;;;;;4991613;28;20057;-83
2022/09/11 09:18:14;;;;;;;8.45;4.28;;;19.80;99.90;;;;;;4994052;28;20144;-86
2022/09/11 09:20:44;;;;;;;8.70;4.65;;;19.80;99.90;;;;;;4962469;28;20061;-83
2022/09/11 09:23:24;;;;;;;8.18;4.82;;;19.80;99.90;;;;;;4989191;28;20140;-80
2022/09/11 09:25:54;;;;;;;6.70;4.03;;;19.70;99.90;;;;;;5010099;28;20068;-84
2022/09/11 09:28:23;;;;;;;7.80;4.10;;;19.80;99.90;;;;;;5009778;28;20053;-84
2022/09/11 09:30:58;;;;;;;6.80;3.70;;;20.10;99.90;;;;;;5009986;28;20536;-83
2022/09/11 09:33:31;;;;;;;;;;;20.40;99.90;;;;;;5011010;28;20413;-83
2022/09/11 09:36:10;;;;;;;9.70;4.10;;;20.30;99.90;;;;;;4992917;28;19925;-79
2022/09/11 09:38:36;;;;;;;7.82;3.70;;;20.30;99.90;;;;;;5010186;28;20073;-79
2022/09/11 09:41:22;;;;;;;11.70;3.50;;;20.40;99.90;;;;;;4984678;28;20173;-82
2022/09/11 09:44:00;;;;;;;6.43;3.67;;;20.30;99.90;;;;;;5023598;28;20060;-79
2022/09/11 09:46:35;;;;;;;11.38;3.63;;;20.30;99.90;;;;;;5034653;28;20098;-81
2022/09/11 09:49:01;;;;;;;8.45;3.70;;;20.30;99.90;;;;;;5030386;28;20105;-81
2022/09/11 09:51:27;;;;;;;8.55;4.15;;;20.30;99.90;;;;;;5038447;28;20271;-83
2022/09/11 09:53:59;;;;;;;7.03;4.32;;;20.60;99.90;;;;;;5034383;28;20560;-82
2022/09/11 09:56:25;;;;;;;8.90;4.15;;;20.70;99.90;;;;;;5029835;28;20493;-83
2022/09/11 09:59:13;;;;;;;9.35;4.30;;;21.00;99.90;;;;;;5030317;28;20060;-82
2022/09/11 10:01:38;;;;;;;5.60;3.50;;;21.30;99.90;;;;;;5029745;28;20079;-84
2022/09/11 10:04:21;;;;;;;7.10;3.20;;;21.60;99.90;;;;;;5030850;28;20049;-82
2022/09/11 10:06:50;;;;;;;9.63;3.50;;;21.60;99.90;;;;;;5031077;28;20049;-81
2022/09/11 10:09:28;;;;;;;9.68;3.30;;;21.40;99.90;;;;;;5038052;28;20050;-82
2022/09/11 10:12:05;;;;;;;5.40;2.30;;;21.40;99.90;;;;;;5031202;28;20041;-78
2022/09/11 10:14:53;;;;;;;4.55;1.98;;;21.30;99.90;;;;;;5037979;28;20099;-81
2022/09/11 10:17:22;;;;;;;6.15;2.85;;;21.30;99.90;;;;;;5030838;28;20462;-83
2022/09/11 10:19:49;;;;;;;7.90;2.95;;;21.30;99.90;;;;;;5028372;28;20033;-81
2022/09/11 10:22:30;;;;;;;5.93;2.88;;;21.60;99.90;;;;;;5028906;28;20057;-80
2022/09/11 10:25:04;;;;;;;6.38;1.80;;;21.90;99.90;;;;;;5021772;28;20057;-81
2022/09/11 10:27:34;;;;;;;6.40;2.00;;;22.10;99.90;;;;;;5029335;28;20049;-81
2022/09/11 10:30:02;;;;;;;4.32;1.95;;;22.30;99.90;;;;;;5031035;28;20048;-80
2022/09/11 10:32:28;;;;;;;2.90;1.48;;;22.60;99.90;;;;;;5035411;28;20075;-84
2022/09/11 10:34:55;;;;;;;3.40;1.38;;;22.70;99.90;;;;;;5024648;28;20041;-79
2022/09/11 10:37:28;;;;;;;3.97;1.73;;;23.00;99.90;;;;;;5021218;28;20076;-81
2022/09/11 10:40:03;;;;;;;5.88;1.48;;;23.10;99.90;;;;;;5045259;28;20044;-82
2022/09/11 10:42:30;;;;;;;;;;;23.40;99.90;;;;;;5051762;28;20492;-80
2022/09/11 10:45:16;;;;;;;4.13;1.35;;;23.50;99.90;;;;;;5049852;28;19944;-82
2022/09/11 10:47:44;;;;;;;5.50;1.67;;;23.60;99.90;;;;;;5051610;28;20045;-81
2022/09/11 10:50:25;;;;;;;6.95;2.05;;;23.80;99.90;;;;;;5051430;28;20045;-80
2022/09/11 10:52:57;;;;;;;7.57;1.70;;;23.90;99.90;;;;;;5051207;28;20086;-79
2022/09/11 10:55:35;;;;;;;3.78;1.15;;;24.10;99.90;;;;;;5051260;28;20049;-79
2022/09/11 10:58:14;;;;;;;3.38;1.25;;;24.20;99.90;;;;;;5049953;28;20153;-84
2022/09/11 11:00:41;;;;;;;3.17;1.00;;;24.50;99.90;;;;;;5049625;28;20072;-81
2022/09/11 11:03:16;;;;;;;3.55;1.20;;;24.80;99.90;;;;;;5051430;28;20081;-81
2022/09/11 11:06:03;;;;;;;4.90;1.45;;;25.00;99.90;;;;;;5051252;28;20060;-79
2022/09/11 11:08:54;;;;;;;3.95;1.20;;;24.70;99.90;;;;;;5049894;28;20052;-80
2022/09/11 11:12:00;;;;;;;7.90;1.55;;;24.40;99.90;;;;;;5051275;28;20063;-79
2022/09/11 11:15:18;;;;;;;3.88;1.70;;;24.20;99.90;;;;;;5051062;28;20127;-77
2022/09/11 11:18:06;;;;;;;7.20;2.05;;;23.80;99.90;;;;;;4989015;28;20059;-82
2022/09/11 11:21:12;;;;;;;5.65;1.80;;;23.70;99.90;;;;;;4989228;28;20201;-79
2022/09/11 11:24:00;;;;;;;5.28;1.60;;;23.50;99.90;;;;;;4973224;28;20129;-80
2022/09/11 11:26:41;;;;;;;3.67;1.30;;;23.40;99.90;;;;;;4989119;28;20082;-79
2022/09/11 11:29:21;;;;;;;5.95;1.45;;;23.10;99.90;;;;;;4972928;28;20080;-80
2022/09/11 11:32:14;;;;;;;7.13;1.63;;;23.00;99.90;;;;;;4988537;28;20165;-79
2022/09/11 11:35:11;;;;;;;3.83;1.58;;;23.00;99.90;;;;;;4972686;28;20062;-80
2022/09/11 11:37:40;;;;;;;4.40;1.40;;;22.90;99.90;;;;;;4988892;28;20453;-80
2022/09/11 11:40:35;;;;;;;4.13;1.50;;;22.90;99.90;;;;;;4972422;28;20059;-80
2022/09/11 11:43:06;;;;;;;;;;;22.80;99.90;;;;;;4988915;28;20429;-79
2022/09/11 11:45:52;;;;;;;5.80;1.70;;;22.60;99.90;;;;;;4972638;28;19922;-80
2022/09/11 11:48:29;;;;;;;8.20;1.50;;;22.70;99.90;;;;;;4972132;28;20973;-80
2022/09/11 11:51:01;;;;;;;6.30;1.58;;;23.10;99.90;;;;;;4988526;28;20070;-80
2022/09/11 11:53:39;;;;;;;27.17;4.15;;;23.40;99.90;;;;;;5013057;28;20075;-80
2022/09/11 11:56:16;;;;;;;4.03;1.50;;;23.70;99.90;;;;;;5050169;28;20475;-81
2022/09/11 11:58:46;;;;;;;3.85;1.20;;;24.00;99.90;;;;;;5049972;28;20059;-80
2022/09/11 12:01:39;;;;;;;3.72;1.20;;;24.20;99.90;;;;;;5049950;28;20084;-80
2022/09/11 12:04:58;;;;;;;2.75;1.02;;;24.60;99.90;;;;;;5049653;28;20040;-79
2022/09/11 12:07:29;;;;;;;3.50;1.52;;;24.50;99.90;;;;;;4987965;28;20053;-79
2022/09/11 12:09:57;;;;;;;3.90;1.20;;;24.50;99.90;;;;;;4988152;28;20093;-79
2022/09/11 12:12:26;;;;;;;5.38;1.95;;;24.70;99.90;;;;;;4988063;28;20098;-78
2022/09/11 12:14:59;;;;;;;5.82;1.20;;;25.10;99.90;;;;;;4988141;28;20054;-81
2022/09/11 12:17:31;;;;;;;2.75;1.00;;;24.80;99.90;;;;;;4987964;28;20149;-80
2022/09/11 12:20:09;;;;;;;4.05;1.25;;;24.90;99.90;;;;;;4987570;28;20046;-79
2022/09/11 12:22:47;;;;;;;4.15;1.45;;;24.90;99.90;;;;;;4988146;28;20081;-79
2022/09/11 12:25:21;;;;;;;4.43;0.93;;;24.90;99.90;;;;;;4971307;28;20498;-78
2022/09/11 12:27:50;;;;;;;;;;;24.90;99.90;;;;;;4988608;28;20458;-79
2022/09/11 12:30:16;;;;;;;3.55;1.20;;;24.80;99.90;;;;;;4988064;28;20262;-79
2022/09/11 12:32:45;;;;;;;2.42;1.00;;;24.80;99.90;;;;;;4987963;28;20049;-80
2022/09/11 12:35:20;;;;;;;4.38;0.98;;;24.70;99.90;;;;;;4971342;28;20046;-79
2022/09/11 12:37:59;;;;;;;3.38;0.88;;;24.80;99.90;;;;;;4987677;28;20051;-79
2022/09/11 12:40:31;;;;;;;4.30;1.20;;;25.00;99.90;;;;;;4987648;28;20050;-80
2022/09/11 12:43:19;;;;;;;4.18;1.27;;;25.00;99.90;;;;;;4964835;28;20065;-80
2022/09/11 12:45:48;;;;;;;2.42;1.25;;;24.90;99.90;;;;;;5038886;28;20065;-78
2022/09/11 12:48:20;;;;;;;9.27;1.35;;;24.60;99.90;;;;;;5049571;28;20052;-79
2022/09/11 12:50:54;;;;;;;5.38;1.50;;;24.60;99.90;;;;;;5049051;28;20041;-79
2022/09/11 12:53:22;;;;;;;;;;;24.50;99.90;;;;;;5048228;28;20064;-79
2022/09/11 12:55:53;;;;;;;3.80;1.45;;;24.30;99.90;;;;;;5049406;28;20027;-80
2022/09/11 12:58:18;;;;;;;3.63;1.00;;;24.20;99.90;;;;;;5048103;28;20053;-81
2022/09/11 13:00:53;;;;;;;3.67;1.02;;;24.20;99.90;;;;;;5049353;28;20141;-80